sensor_id;sensor_type;location;lat;lon;timestamp;P1;durP1;ratioP1;P2;durP2;ratioP2
51214;SDS011;63849;47.546;19.254;2023-05-07T00:00:27;19.40;;;17.38;;
51214;SDS011;63849;47.546;19.254;2023-05-07T00:02:53;19.42;;;17.13;;
51214;SDS011;63849;47.546;19.254;2023-05-07T00:05:19;19.95;;;17.88;;
51214;SDS011;63849;47.546;19.254;2023-05-07T00:07:45;21.50;;;19.30;;
51214;SDS011;63849;47.546;19.254;2023-05-07T00:10:11;19.25;;;17.42;;
51214;SDS011;63849;47.546;19.254;2023-05-07T00:12:37;20.50;;;18.45;;
51214;SDS011;63849;47.546;19.254;2023-05-07T00:15:03;21.02;;;18.98;;
51214;SDS011;63849;47.546;19.254;2023-05-07T00:17:30;20.48;;;18.45;;
51214;SDS011;63849;47.546;19.254;2023-05-07T00:19:56;19.95;;;17.95;;
51214;SDS011;63849;47.546;19.254;2023-05-07T00:22:22;20.80;;;18.70;;
51214;SDS011;63849;47.546;19.254;2023-05-07T00:24:47;20.38;;;18.30;;
51214;SDS011;63849;47.546;19.254;2023-05-07T00:27:13;21.25;;;18.92;;
51214;SDS011;63849;47.546;19.254;2023-05-07T00:29:39;20.67;;;18.55;;
51214;SDS011;63849;47.546;19.254;2023-05-07T00:32:05;21.63;;;19.50;;
51214;SDS011;63849;47.546;19.254;2023-05-07T00:34:30;21.08;;;18.83;;
51214;SDS011;63849;47.546;19.254;2023-05-07T00:36:56;20.88;;;18.70;;
51214;SDS011;63849;47.546;19.254;2023-05-07T00:39:22;20.65;;;18.52;;
51214;SDS011;63849;47.546;19.254;2023-05-07T00:41:48;26.38;;;20.50;;
51214;SDS011;63849;47.546;19.254;2023-05-07T00:44:13;21.52;;;19.38;;
51214;SDS011;63849;47.546;19.254;2023-05-07T00:46:39;21.17;;;18.90;;
51214;SDS011;63849;47.546;19.254;2023-05-07T00:49:06;20.50;;;18.17;;
51214;SDS011;63849;47.546;19.254;2023-05-07T00:51:32;27.05;;;20.27;;
51214;SDS011;63849;47.546;19.254;2023-05-07T00:53:59;28.30;;;22.08;;
51214;SDS011;63849;47.546;19.254;2023-05-07T00:56:27;23.38;;;21.08;;
51214;SDS011;63849;47.546;19.254;2023-05-07T00:58:53;23.98;;;21.20;;
51214;SDS011;63849;47.546;19.254;2023-05-07T01:01:19;24.35;;;21.75;;
51214;SDS011;63849;47.546;19.254;2023-05-07T01:03:45;25.50;;;22.30;;
51214;SDS011;63849;47.546;19.254;2023-05-07T01:06:11;22.13;;;19.90;;
51214;SDS011;63849;47.546;19.254;2023-05-07T01:08:41;23.17;;;20.90;;
51214;SDS011;63849;47.546;19.254;2023-05-07T01:11:08;25.90;;;23.20;;
51214;SDS011;63849;47.546;19.254;2023-05-07T01:13:35;24.50;;;21.92;;
51214;SDS011;63849;47.546;19.254;2023-05-07T01:16:05;23.63;;;21.15;;
51214;SDS011;63849;47.546;19.254;2023-05-07T01:18:31;26.80;;;23.52;;
51214;SDS011;63849;47.546;19.254;2023-05-07T01:21:00;24.98;;;22.33;;
51214;SDS011;63849;47.546;19.254;2023-05-07T01:23:29;24.38;;;21.77;;
51214;SDS011;63849;47.546;19.254;2023-05-07T01:25:55;24.00;;;21.25;;
51214;SDS011;63849;47.546;19.254;2023-05-07T01:28:21;24.25;;;21.65;;
51214;SDS011;63849;47.546;19.254;2023-05-07T01:30:48;24.83;;;22.33;;
51214;SDS011;63849;47.546;19.254;2023-05-07T01:33:21;23.98;;;21.45;;
51214;SDS011;63849;47.546;19.254;2023-05-07T01:35:48;24.92;;;22.23;;
51214;SDS011;63849;47.546;19.254;2023-05-07T01:38:16;24.00;;;21.60;;
51214;SDS011;63849;47.546;19.254;2023-05-07T01:40:43;23.98;;;21.55;;
51214;SDS011;63849;47.546;19.254;2023-05-07T01:43:09;22.65;;;20.27;;
51214;SDS011;63849;47.546;19.254;2023-05-07T01:45:35;23.48;;;21.10;;
51214;SDS011;63849;47.546;19.254;2023-05-07T01:48:05;24.17;;;21.58;;
51214;SDS011;63849;47.546;19.254;2023-05-07T01:50:32;25.33;;;22.67;;
51214;SDS011;63849;47.546;19.254;2023-05-07T01:52:58;23.98;;;21.42;;
51214;SDS011;63849;47.546;19.254;2023-05-07T01:55:24;25.33;;;22.70;;
51214;SDS011;63849;47.546;19.254;2023-05-07T01:57:50;25.63;;;22.95;;
51214;SDS011;63849;47.546;19.254;2023-05-07T02:00:18;25.55;;;22.80;;
51214;SDS011;63849;47.546;19.254;2023-05-07T02:02:44;26.20;;;22.70;;
51214;SDS011;63849;47.546;19.254;2023-05-07T02:05:10;23.40;;;21.02;;
51214;SDS011;63849;47.546;19.254;2023-05-07T02:07:36;25.38;;;22.67;;
51214;SDS011;63849;47.546;19.254;2023-05-07T02:10:02;26.33;;;23.60;;
51214;SDS011;63849;47.546;19.254;2023-05-07T02:12:28;26.88;;;24.00;;
51214;SDS011;63849;47.546;19.254;2023-05-07T02:14:53;26.13;;;23.13;;
51214;SDS011;63849;47.546;19.254;2023-05-07T02:17:19;26.83;;;24.00;;
51214;SDS011;63849;47.546;19.254;2023-05-07T02:19:45;25.38;;;22.67;;
51214;SDS011;63849;47.546;19.254;2023-05-07T02:22:11;29.17;;;24.10;;
51214;SDS011;63849;47.546;19.254;2023-05-07T02:24:37;25.80;;;23.05;;
51214;SDS011;63849;47.546;19.254;2023-05-07T02:27:02;25.92;;;23.23;;
51214;SDS011;63849;47.546;19.254;2023-05-07T02:29:28;27.23;;;23.90;;
51214;SDS011;63849;47.546;19.254;2023-05-07T02:31:54;25.75;;;23.00;;
51214;SDS011;63849;47.546;19.254;2023-05-07T02:34:20;27.15;;;22.15;;
51214;SDS011;63849;47.546;19.254;2023-05-07T02:36:46;25.60;;;22.98;;
51214;SDS011;63849;47.546;19.254;2023-05-07T02:39:12;24.95;;;22.45;;
51214;SDS011;63849;47.546;19.254;2023-05-07T02:41:39;25.77;;;23.15;;
51214;SDS011;63849;47.546;19.254;2023-05-07T02:44:07;25.85;;;23.30;;
51214;SDS011;63849;47.546;19.254;2023-05-07T02:46:34;26.33;;;23.63;;
51214;SDS011;63849;47.546;19.254;2023-05-07T02:48:59;28.50;;;23.55;;
51214;SDS011;63849;47.546;19.254;2023-05-07T02:51:29;27.67;;;24.77;;
51214;SDS011;63849;47.546;19.254;2023-05-07T02:53:56;25.77;;;23.17;;
51214;SDS011;63849;47.546;19.254;2023-05-07T02:56:22;27.77;;;24.63;;
51214;SDS011;63849;47.546;19.254;2023-05-07T02:58:47;26.85;;;24.15;;
51214;SDS011;63849;47.546;19.254;2023-05-07T03:01:13;27.00;;;24.23;;
51214;SDS011;63849;47.546;19.254;2023-05-07T03:03:39;27.65;;;23.95;;
51214;SDS011;63849;47.546;19.254;2023-05-07T03:06:09;27.02;;;24.13;;
51214;SDS011;63849;47.546;19.254;2023-05-07T03:08:35;28.45;;;25.48;;
51214;SDS011;63849;47.546;19.254;2023-05-07T03:11:02;29.20;;;25.70;;
51214;SDS011;63849;47.546;19.254;2023-05-07T03:13:27;27.80;;;24.80;;
51214;SDS011;63849;47.546;19.254;2023-05-07T03:15:53;29.48;;;26.27;;
51214;SDS011;63849;47.546;19.254;2023-05-07T03:18:19;28.80;;;25.80;;
51214;SDS011;63849;47.546;19.254;2023-05-07T03:20:45;28.25;;;25.30;;
51214;SDS011;63849;47.546;19.254;2023-05-07T03:23:13;31.88;;;26.60;;
51214;SDS011;63849;47.546;19.254;2023-05-07T03:25:39;29.92;;;26.83;;
51214;SDS011;63849;47.546;19.254;2023-05-07T03:28:04;30.38;;;27.08;;
51214;SDS011;63849;47.546;19.254;2023-05-07T03:30:30;30.02;;;26.20;;
51214;SDS011;63849;47.546;19.254;2023-05-07T03:32:56;30.00;;;26.80;;
51214;SDS011;63849;47.546;19.254;2023-05-07T03:35:22;29.55;;;26.63;;
51214;SDS011;63849;47.546;19.254;2023-05-07T03:37:47;31.58;;;28.10;;
51214;SDS011;63849;47.546;19.254;2023-05-07T03:40:13;30.98;;;27.67;;
51214;SDS011;63849;47.546;19.254;2023-05-07T03:42:42;31.17;;;27.58;;
51214;SDS011;63849;47.546;19.254;2023-05-07T03:45:08;32.80;;;29.27;;
51214;SDS011;63849;47.546;19.254;2023-05-07T03:47:34;31.10;;;27.88;;
51214;SDS011;63849;47.546;19.254;2023-05-07T03:49:59;31.08;;;27.75;;
51214;SDS011;63849;47.546;19.254;2023-05-07T03:52:25;31.25;;;27.67;;
51214;SDS011;63849;47.546;19.254;2023-05-07T03:54:52;31.80;;;28.33;;
51214;SDS011;63849;47.546;19.254;2023-05-07T03:57:19;32.42;;;29.02;;
51214;SDS011;63849;47.546;19.254;2023-05-07T03:59:45;33.05;;;29.48;;
51214;SDS011;63849;47.546;19.254;2023-05-07T04:02:11;35.83;;;31.95;;
51214;SDS011;63849;47.546;19.254;2023-05-07T04:04:37;35.38;;;31.20;;
51214;SDS011;63849;47.546;19.254;2023-05-07T04:07:03;38.65;;;31.23;;
51214;SDS011;63849;47.546;19.254;2023-05-07T04:09:29;35.97;;;31.73;;
51214;SDS011;63849;47.546;19.254;2023-05-07T04:11:55;36.28;;;32.30;;
51214;SDS011;63849;47.546;19.254;2023-05-07T04:14:21;36.20;;;32.40;;
51214;SDS011;63849;47.546;19.254;2023-05-07T04:16:50;39.58;;;33.63;;
51214;SDS011;63849;47.546;19.254;2023-05-07T04:19:16;38.13;;;33.25;;
51214;SDS011;63849;47.546;19.254;2023-05-07T04:21:44;37.90;;;33.83;;
51214;SDS011;63849;47.546;19.254;2023-05-07T04:24:09;36.47;;;32.58;;
51214;SDS011;63849;47.546;19.254;2023-05-07T04:26:36;41.03;;;34.45;;
51214;SDS011;63849;47.546;19.254;2023-05-07T04:29:02;36.92;;;32.35;;
51214;SDS011;63849;47.546;19.254;2023-05-07T04:31:28;38.08;;;33.42;;
51214;SDS011;63849;47.546;19.254;2023-05-07T04:33:55;34.88;;;31.02;;
51214;SDS011;63849;47.546;19.254;2023-05-07T04:36:21;36.00;;;31.58;;
51214;SDS011;63849;47.546;19.254;2023-05-07T04:38:47;36.97;;;32.30;;
51214;SDS011;63849;47.546;19.254;2023-05-07T04:41:12;36.85;;;32.90;;
51214;SDS011;63849;47.546;19.254;2023-05-07T04:43:38;35.65;;;31.77;;
51214;SDS011;63849;47.546;19.254;2023-05-07T04:46:05;38.80;;;33.28;;
51214;SDS011;63849;47.546;19.254;2023-05-07T04:48:31;38.75;;;33.15;;
51214;SDS011;63849;47.546;19.254;2023-05-07T04:50:56;38.92;;;33.03;;
51214;SDS011;63849;47.546;19.254;2023-05-07T04:53:22;35.42;;;31.67;;
51214;SDS011;63849;47.546;19.254;2023-05-07T04:55:48;31.73;;;28.30;;
51214;SDS011;63849;47.546;19.254;2023-05-07T04:58:14;33.25;;;29.33;;
51214;SDS011;63849;47.546;19.254;2023-05-07T05:00:39;33.15;;;29.65;;
51214;SDS011;63849;47.546;19.254;2023-05-07T05:03:07;35.28;;;30.00;;
51214;SDS011;63849;47.546;19.254;2023-05-07T05:05:33;31.35;;;27.88;;
51214;SDS011;63849;47.546;19.254;2023-05-07T05:07:59;32.38;;;28.85;;
51214;SDS011;63849;47.546;19.254;2023-05-07T05:10:25;31.88;;;28.48;;
51214;SDS011;63849;47.546;19.254;2023-05-07T05:12:51;29.58;;;26.48;;
51214;SDS011;63849;47.546;19.254;2023-05-07T05:15:17;28.17;;;25.30;;
51214;SDS011;63849;47.546;19.254;2023-05-07T05:17:42;31.88;;;28.45;;
51214;SDS011;63849;47.546;19.254;2023-05-07T05:20:09;31.52;;;28.25;;
51214;SDS011;63849;47.546;19.254;2023-05-07T05:22:36;30.17;;;26.95;;
51214;SDS011;63849;47.546;19.254;2023-05-07T05:25:02;28.35;;;25.38;;
51214;SDS011;63849;47.546;19.254;2023-05-07T05:27:29;27.85;;;24.92;;
51214;SDS011;63849;47.546;19.254;2023-05-07T05:29:54;28.13;;;23.42;;
51214;SDS011;63849;47.546;19.254;2023-05-07T05:32:20;24.38;;;21.90;;
51214;SDS011;63849;47.546;19.254;2023-05-07T05:34:47;23.27;;;20.80;;
51214;SDS011;63849;47.546;19.254;2023-05-07T05:37:12;25.52;;;22.92;;
51214;SDS011;63849;47.546;19.254;2023-05-07T05:39:38;24.83;;;21.95;;
51214;SDS011;63849;47.546;19.254;2023-05-07T05:42:04;19.58;;;17.67;;
51214;SDS011;63849;47.546;19.254;2023-05-07T05:44:30;18.80;;;16.80;;
51214;SDS011;63849;47.546;19.254;2023-05-07T05:46:56;19.40;;;17.42;;
51214;SDS011;63849;47.546;19.254;2023-05-07T05:49:29;16.25;;;14.57;;
51214;SDS011;63849;47.546;19.254;2023-05-07T05:51:55;15.10;;;13.65;;
51214;SDS011;63849;47.546;19.254;2023-05-07T05:54:21;16.35;;;14.77;;
51214;SDS011;63849;47.546;19.254;2023-05-07T05:56:47;15.40;;;12.52;;
51214;SDS011;63849;47.546;19.254;2023-05-07T05:59:13;13.40;;;12.18;;
51214;SDS011;63849;47.546;19.254;2023-05-07T06:01:39;10.73;;;9.73;;
51214;SDS011;63849;47.546;19.254;2023-05-07T06:04:07;8.20;;;7.47;;
51214;SDS011;63849;47.546;19.254;2023-05-07T06:06:36;7.43;;;6.82;;
51214;SDS011;63849;47.546;19.254;2023-05-07T06:09:02;7.20;;;6.50;;
51214;SDS011;63849;47.546;19.254;2023-05-07T06:11:29;9.38;;;7.35;;
51214;SDS011;63849;47.546;19.254;2023-05-07T06:13:56;7.25;;;6.65;;
51214;SDS011;63849;47.546;19.254;2023-05-07T06:16:22;7.63;;;6.85;;
51214;SDS011;63849;47.546;19.254;2023-05-07T06:18:49;5.55;;;5.05;;
51214;SDS011;63849;47.546;19.254;2023-05-07T06:21:17;4.57;;;4.18;;
51214;SDS011;63849;47.546;19.254;2023-05-07T06:23:43;5.93;;;5.43;;
51214;SDS011;63849;47.546;19.254;2023-05-07T06:26:12;5.50;;;5.07;;
51214;SDS011;63849;47.546;19.254;2023-05-07T06:28:38;6.78;;;5.60;;
51214;SDS011;63849;47.546;19.254;2023-05-07T06:31:12;5.00;;;4.60;;
51214;SDS011;63849;47.546;19.254;2023-05-07T06:33:42;5.85;;;5.25;;
51214;SDS011;63849;47.546;19.254;2023-05-07T06:36:12;5.00;;;4.43;;
51214;SDS011;63849;47.546;19.254;2023-05-07T06:38:38;5.28;;;4.78;;
51214;SDS011;63849;47.546;19.254;2023-05-07T06:41:05;3.72;;;3.28;;
51214;SDS011;63849;47.546;19.254;2023-05-07T06:43:32;2.95;;;2.75;;
51214;SDS011;63849;47.546;19.254;2023-05-07T06:46:01;3.80;;;3.28;;
51214;SDS011;63849;47.546;19.254;2023-05-07T06:48:33;3.30;;;2.53;;
51214;SDS011;63849;47.546;19.254;2023-05-07T06:51:04;3.70;;;3.40;;
51214;SDS011;63849;47.546;19.254;2023-05-07T06:53:30;3.83;;;3.60;;
51214;SDS011;63849;47.546;19.254;2023-05-07T06:55:57;6.53;;;4.38;;
51214;SDS011;63849;47.546;19.254;2023-05-07T06:58:22;4.43;;;4.03;;
51214;SDS011;63849;47.546;19.254;2023-05-07T07:00:48;3.92;;;3.63;;
51214;SDS011;63849;47.546;19.254;2023-05-07T07:03:14;4.22;;;3.92;;
51214;SDS011;63849;47.546;19.254;2023-05-07T07:05:41;3.35;;;3.15;;
51214;SDS011;63849;47.546;19.254;2023-05-07T07:08:07;3.50;;;3.20;;
51214;SDS011;63849;47.546;19.254;2023-05-07T07:10:33;4.20;;;3.47;;
51214;SDS011;63849;47.546;19.254;2023-05-07T07:12:59;3.10;;;2.90;;
51214;SDS011;63849;47.546;19.254;2023-05-07T07:15:25;3.05;;;2.70;;
51214;SDS011;63849;47.546;19.254;2023-05-07T07:17:53;3.78;;;2.80;;
51214;SDS011;63849;47.546;19.254;2023-05-07T07:20:22;3.30;;;3.10;;
51214;SDS011;63849;47.546;19.254;2023-05-07T07:22:48;3.85;;;2.83;;
51214;SDS011;63849;47.546;19.254;2023-05-07T07:25:13;2.90;;;2.33;;
51214;SDS011;63849;47.546;19.254;2023-05-07T07:27:39;2.70;;;2.50;;
51214;SDS011;63849;47.546;19.254;2023-05-07T07:30:06;2.83;;;2.42;;
51214;SDS011;63849;47.546;19.254;2023-05-07T07:32:32;2.95;;;2.72;;
51214;SDS011;63849;47.546;19.254;2023-05-07T07:35:00;2.90;;;2.25;;
51214;SDS011;63849;47.546;19.254;2023-05-07T07:37:26;3.10;;;2.90;;
51214;SDS011;63849;47.546;19.254;2023-05-07T07:39:55;2.58;;;2.40;;
51214;SDS011;63849;47.546;19.254;2023-05-07T07:42:21;2.53;;;2.17;;
51214;SDS011;63849;47.546;19.254;2023-05-07T07:44:50;2.55;;;2.35;;
51214;SDS011;63849;47.546;19.254;2023-05-07T07:47:15;3.42;;;2.40;;
51214;SDS011;63849;47.546;19.254;2023-05-07T07:49:44;3.75;;;2.28;;
51214;SDS011;63849;47.546;19.254;2023-05-07T07:52:10;2.20;;;2.00;;
51214;SDS011;63849;47.546;19.254;2023-05-07T07:54:36;1.80;;;1.70;;
51214;SDS011;63849;47.546;19.254;2023-05-07T07:57:02;2.95;;;2.55;;
51214;SDS011;63849;47.546;19.254;2023-05-07T07:59:28;2.20;;;2.10;;
51214;SDS011;63849;47.546;19.254;2023-05-07T08:01:54;2.65;;;2.35;;
51214;SDS011;63849;47.546;19.254;2023-05-07T08:04:21;2.10;;;2.00;;
51214;SDS011;63849;47.546;19.254;2023-05-07T08:06:48;1.80;;;1.70;;
51214;SDS011;63849;47.546;19.254;2023-05-07T08:09:14;1.80;;;1.70;;
51214;SDS011;63849;47.546;19.254;2023-05-07T08:11:40;2.35;;;2.15;;
51214;SDS011;63849;47.546;19.254;2023-05-07T08:14:11;2.83;;;2.03;;
51214;SDS011;63849;47.546;19.254;2023-05-07T08:16:37;2.00;;;1.90;;
51214;SDS011;63849;47.546;19.254;2023-05-07T08:19:03;1.98;;;1.88;;
51214;SDS011;63849;47.546;19.254;2023-05-07T08:21:28;1.98;;;1.80;;
51214;SDS011;63849;47.546;19.254;2023-05-07T08:24:04;3.13;;;2.22;;
51214;SDS011;63849;47.546;19.254;2023-05-07T08:26:30;2.08;;;1.88;;
51214;SDS011;63849;47.546;19.254;2023-05-07T08:28:56;1.88;;;1.77;;
51214;SDS011;63849;47.546;19.254;2023-05-07T08:31:24;5.63;;;5.00;;
51214;SDS011;63849;47.546;19.254;2023-05-07T08:33:50;3.70;;;3.17;;
51214;SDS011;63849;47.546;19.254;2023-05-07T08:36:16;5.00;;;3.17;;
51214;SDS011;63849;47.546;19.254;2023-05-07T08:38:44;2.88;;;2.20;;
51214;SDS011;63849;47.546;19.254;2023-05-07T08:41:10;2.50;;;2.30;;
51214;SDS011;63849;47.546;19.254;2023-05-07T08:43:46;1.80;;;1.70;;
51214;SDS011;63849;47.546;19.254;2023-05-07T08:46:22;2.30;;;2.10;;
51214;SDS011;63849;47.546;19.254;2023-05-07T08:48:51;2.72;;;2.20;;
51214;SDS011;63849;47.546;19.254;2023-05-07T08:51:18;3.05;;;2.53;;
51214;SDS011;63849;47.546;19.254;2023-05-07T08:53:45;3.78;;;3.17;;
51214;SDS011;63849;47.546;19.254;2023-05-07T08:56:17;3.33;;;3.13;;
51214;SDS011;63849;47.546;19.254;2023-05-07T08:58:45;3.63;;;2.50;;
51214;SDS011;63849;47.546;19.254;2023-05-07T09:01:14;3.78;;;3.00;;
51214;SDS011;63849;47.546;19.254;2023-05-07T09:03:44;2.67;;;2.47;;
51214;SDS011;63849;47.546;19.254;2023-05-07T09:06:10;3.72;;;3.03;;
51214;SDS011;63849;47.546;19.254;2023-05-07T09:08:36;3.83;;;2.80;;
51214;SDS011;63849;47.546;19.254;2023-05-07T09:11:02;2.20;;;2.10;;
51214;SDS011;63849;47.546;19.254;2023-05-07T09:13:28;3.60;;;2.38;;
51214;SDS011;63849;47.546;19.254;2023-05-07T09:15:55;2.92;;;2.35;;
51214;SDS011;63849;47.546;19.254;2023-05-07T09:18:30;3.00;;;2.65;;
51214;SDS011;63849;47.546;19.254;2023-05-07T09:20:56;3.67;;;3.08;;
51214;SDS011;63849;47.546;19.254;2023-05-07T09:23:22;4.85;;;2.58;;
51214;SDS011;63849;47.546;19.254;2023-05-07T09:25:51;4.32;;;2.50;;
51214;SDS011;63849;47.546;19.254;2023-05-07T09:28:27;2.17;;;1.95;;
51214;SDS011;63849;47.546;19.254;2023-05-07T09:30:52;2.63;;;2.05;;
51214;SDS011;63849;47.546;19.254;2023-05-07T09:33:23;2.10;;;1.90;;
51214;SDS011;63849;47.546;19.254;2023-05-07T09:35:55;3.25;;;2.20;;
51214;SDS011;63849;47.546;19.254;2023-05-07T09:38:21;2.22;;;1.90;;
51214;SDS011;63849;47.546;19.254;2023-05-07T09:40:48;2.38;;;2.20;;
51214;SDS011;63849;47.546;19.254;2023-05-07T09:43:35;2.10;;;2.00;;
51214;SDS011;63849;47.546;19.254;2023-05-07T09:46:11;2.50;;;2.30;;
51214;SDS011;63849;47.546;19.254;2023-05-07T09:48:47;3.45;;;2.33;;
51214;SDS011;63849;47.546;19.254;2023-05-07T09:51:25;4.38;;;1.92;;
51214;SDS011;63849;47.546;19.254;2023-05-07T09:53:56;2.80;;;2.60;;
51214;SDS011;63849;47.546;19.254;2023-05-07T09:56:22;3.30;;;2.60;;
51214;SDS011;63849;47.546;19.254;2023-05-07T09:58:49;2.45;;;2.08;;
51214;SDS011;63849;47.546;19.254;2023-05-07T10:01:20;2.63;;;2.38;;
51214;SDS011;63849;47.546;19.254;2023-05-07T10:03:49;2.88;;;2.08;;
51214;SDS011;63849;47.546;19.254;2023-05-07T10:06:19;2.08;;;1.95;;
51214;SDS011;63849;47.546;19.254;2023-05-07T10:08:45;2.63;;;2.33;;
51214;SDS011;63849;47.546;19.254;2023-05-07T10:11:13;3.10;;;2.80;;
51214;SDS011;63849;47.546;19.254;2023-05-07T10:13:41;2.53;;;2.03;;
51214;SDS011;63849;47.546;19.254;2023-05-07T10:16:08;3.47;;;3.05;;
51214;SDS011;63849;47.546;19.254;2023-05-07T10:18:36;2.78;;;2.38;;
51214;SDS011;63849;47.546;19.254;2023-05-07T10:21:07;2.65;;;2.10;;
51214;SDS011;63849;47.546;19.254;2023-05-07T10:23:39;2.42;;;2.22;;
51214;SDS011;63849;47.546;19.254;2023-05-07T10:26:06;2.25;;;2.05;;
51214;SDS011;63849;47.546;19.254;2023-05-07T10:28:43;2.92;;;2.35;;
51214;SDS011;63849;47.546;19.254;2023-05-07T10:31:18;3.67;;;2.80;;
51214;SDS011;63849;47.546;19.254;2023-05-07T10:33:55;4.88;;;3.83;;
51214;SDS011;63849;47.546;19.254;2023-05-07T10:36:23;4.43;;;2.97;;
51214;SDS011;63849;47.546;19.254;2023-05-07T10:38:51;3.47;;;2.50;;
51214;SDS011;63849;47.546;19.254;2023-05-07T10:41:17;3.83;;;3.53;;
51214;SDS011;63849;47.546;19.254;2023-05-07T10:43:44;4.57;;;4.18;;
51214;SDS011;63849;47.546;19.254;2023-05-07T10:46:17;4.05;;;2.70;;
51214;SDS011;63849;47.546;19.254;2023-05-07T10:51:34;4.10;;;2.90;;
51214;SDS011;63849;47.546;19.254;2023-05-07T10:54:33;3.22;;;2.92;;
51214;SDS011;63849;47.546;19.254;2023-05-07T10:56:55;4.93;;;4.53;;
51214;SDS011;63849;47.546;19.254;2023-05-07T11:04:31;3.13;;;2.92;;
51214;SDS011;63849;47.546;19.254;2023-05-07T11:15:06;3.72;;;2.42;;
51214;SDS011;63849;47.546;19.254;2023-05-07T11:17:34;3.40;;;2.50;;
51214;SDS011;63849;47.546;19.254;2023-05-07T11:20:01;2.97;;;2.78;;
51214;SDS011;63849;47.546;19.254;2023-05-07T11:22:36;5.20;;;4.13;;
51214;SDS011;63849;47.546;19.254;2023-05-07T11:25:05;4.75;;;4.32;;
51214;SDS011;63849;47.546;19.254;2023-05-07T11:27:31;4.00;;;3.55;;
51214;SDS011;63849;47.546;19.254;2023-05-07T11:30:00;4.03;;;3.65;;
51214;SDS011;63849;47.546;19.254;2023-05-07T11:32:28;3.95;;;3.05;;
51214;SDS011;63849;47.546;19.254;2023-05-07T11:34:58;4.13;;;3.47;;
51214;SDS011;63849;47.546;19.254;2023-05-07T11:37:25;3.60;;;3.10;;
51214;SDS011;63849;47.546;19.254;2023-05-07T11:40:04;3.85;;;2.83;;
51214;SDS011;63849;47.546;19.254;2023-05-07T11:42:33;2.70;;;2.50;;
51214;SDS011;63849;47.546;19.254;2023-05-07T11:45:00;3.35;;;2.70;;
51214;SDS011;63849;47.546;19.254;2023-05-07T11:47:29;2.38;;;2.17;;
51214;SDS011;63849;47.546;19.254;2023-05-07T11:49:56;2.92;;;2.67;;
51214;SDS011;63849;47.546;19.254;2023-05-07T11:52:23;2.88;;;2.67;;
51214;SDS011;63849;47.546;19.254;2023-05-07T11:54:53;3.63;;;2.70;;
51214;SDS011;63849;47.546;19.254;2023-05-07T11:57:20;2.88;;;2.65;;
51214;SDS011;63849;47.546;19.254;2023-05-07T11:59:54;2.63;;;2.42;;
51214;SDS011;63849;47.546;19.254;2023-05-07T12:02:24;2.80;;;2.60;;
51214;SDS011;63849;47.546;19.254;2023-05-07T12:04:54;3.40;;;3.10;;
51214;SDS011;63849;47.546;19.254;2023-05-07T12:07:20;5.28;;;3.67;;
51214;SDS011;63849;47.546;19.254;2023-05-07T12:09:49;3.63;;;3.30;;
51214;SDS011;63849;47.546;19.254;2023-05-07T12:12:18;4.40;;;4.00;;
51214;SDS011;63849;47.546;19.254;2023-05-07T12:14:44;5.03;;;3.60;;
51214;SDS011;63849;47.546;19.254;2023-05-07T12:17:11;7.10;;;4.82;;
51214;SDS011;63849;47.546;19.254;2023-05-07T12:19:39;5.28;;;4.63;;
51214;SDS011;63849;47.546;19.254;2023-05-07T12:22:09;10.82;;;4.70;;
51214;SDS011;63849;47.546;19.254;2023-05-07T12:27:13;10.20;;;5.63;;
51214;SDS011;63849;47.546;19.254;2023-05-07T12:29:39;8.10;;;5.57;;
51214;SDS011;63849;47.546;19.254;2023-05-07T12:32:12;9.27;;;5.57;;
51214;SDS011;63849;47.546;19.254;2023-05-07T12:34:40;7.18;;;5.75;;
51214;SDS011;63849;47.546;19.254;2023-05-07T12:37:06;7.90;;;4.50;;
51214;SDS011;63849;47.546;19.254;2023-05-07T12:39:35;10.50;;;4.53;;
51214;SDS011;63849;47.546;19.254;2023-05-07T12:42:01;6.22;;;4.22;;
51214;SDS011;63849;47.546;19.254;2023-05-07T12:44:35;5.43;;;4.85;;
51214;SDS011;63849;47.546;19.254;2023-05-07T12:47:01;4.20;;;3.90;;
51214;SDS011;63849;47.546;19.254;2023-05-07T12:49:27;3.78;;;3.50;;
51214;SDS011;63849;47.546;19.254;2023-05-07T12:51:54;5.43;;;4.00;;
51214;SDS011;63849;47.546;19.254;2023-05-07T12:54:27;4.22;;;3.92;;
51214;SDS011;63849;47.546;19.254;2023-05-07T12:57:06;3.92;;;3.63;;
51214;SDS011;63849;47.546;19.254;2023-05-07T12:59:37;9.63;;;4.57;;
51214;SDS011;63849;47.546;19.254;2023-05-07T13:02:07;6.43;;;4.60;;
51214;SDS011;63849;47.546;19.254;2023-05-07T13:04:43;6.68;;;4.57;;
51214;SDS011;63849;47.546;19.254;2023-05-07T13:07:11;3.78;;;3.47;;
51214;SDS011;63849;47.546;19.254;2023-05-07T13:09:37;4.78;;;3.50;;
51214;SDS011;63849;47.546;19.254;2023-05-07T13:12:03;6.72;;;4.45;;
51214;SDS011;63849;47.546;19.254;2023-05-07T13:14:29;3.45;;;3.17;;
51214;SDS011;63849;47.546;19.254;2023-05-07T13:16:56;3.95;;;3.53;;
51214;SDS011;63849;47.546;19.254;2023-05-07T13:19:22;3.10;;;2.80;;
51214;SDS011;63849;47.546;19.254;2023-05-07T13:21:48;3.08;;;2.88;;
51214;SDS011;63849;47.546;19.254;2023-05-07T13:24:15;2.92;;;2.72;;
51214;SDS011;63849;47.546;19.254;2023-05-07T13:26:40;3.72;;;2.80;;
51214;SDS011;63849;47.546;19.254;2023-05-07T13:29:06;3.38;;;2.80;;
51214;SDS011;63849;47.546;19.254;2023-05-07T13:31:32;3.55;;;3.25;;
51214;SDS011;63849;47.546;19.254;2023-05-07T13:33:58;3.83;;;3.33;;
51214;SDS011;63849;47.546;19.254;2023-05-07T13:36:25;3.83;;;3.42;;
51214;SDS011;63849;47.546;19.254;2023-05-07T13:38:52;3.55;;;2.95;;
51214;SDS011;63849;47.546;19.254;2023-05-07T13:41:17;3.10;;;2.83;;
51214;SDS011;63849;47.546;19.254;2023-05-07T13:43:43;3.17;;;2.88;;
51214;SDS011;63849;47.546;19.254;2023-05-07T13:46:09;2.88;;;2.67;;
51214;SDS011;63849;47.546;19.254;2023-05-07T13:48:35;3.03;;;2.72;;
51214;SDS011;63849;47.546;19.254;2023-05-07T13:51:01;2.72;;;2.53;;
51214;SDS011;63849;47.546;19.254;2023-05-07T13:53:29;3.33;;;3.03;;
51214;SDS011;63849;47.546;19.254;2023-05-07T13:55:55;3.15;;;2.85;;
51214;SDS011;63849;47.546;19.254;2023-05-07T13:58:21;5.50;;;3.88;;
51214;SDS011;63849;47.546;19.254;2023-05-07T14:00:50;4.18;;;3.20;;
51214;SDS011;63849;47.546;19.254;2023-05-07T14:03:15;6.18;;;4.15;;
51214;SDS011;63849;47.546;19.254;2023-05-07T14:05:42;6.00;;;3.63;;
51214;SDS011;63849;47.546;19.254;2023-05-07T14:08:08;5.22;;;4.60;;
51214;SDS011;63849;47.546;19.254;2023-05-07T14:10:34;4.47;;;4.03;;
51214;SDS011;63849;47.546;19.254;2023-05-07T14:13:00;5.05;;;4.53;;
51214;SDS011;63849;47.546;19.254;2023-05-07T14:15:26;5.95;;;5.28;;
51214;SDS011;63849;47.546;19.254;2023-05-07T14:17:52;10.32;;;3.65;;
51214;SDS011;63849;47.546;19.254;2023-05-07T14:20:18;3.78;;;3.45;;
51214;SDS011;63849;47.546;19.254;2023-05-07T14:22:43;5.03;;;3.50;;
51214;SDS011;63849;47.546;19.254;2023-05-07T14:25:10;3.60;;;3.30;;
51214;SDS011;63849;47.546;19.254;2023-05-07T14:27:38;5.07;;;3.60;;
51214;SDS011;63849;47.546;19.254;2023-05-07T14:30:04;4.25;;;3.55;;
51214;SDS011;63849;47.546;19.254;2023-05-07T14:32:31;3.38;;;3.10;;
51214;SDS011;63849;47.546;19.254;2023-05-07T14:34:58;4.97;;;3.53;;
51214;SDS011;63849;47.546;19.254;2023-05-07T14:37:23;4.03;;;3.17;;
51214;SDS011;63849;47.546;19.254;2023-05-07T14:39:52;3.50;;;3.20;;
51214;SDS011;63849;47.546;19.254;2023-05-07T14:42:19;3.40;;;3.10;;